createdAt,value
2018-09-28T00:00:02.168Z,20.38
2018-09-28T00:01:02.156Z,20.35
2018-09-28T00:02:02.161Z,20.37
2018-09-28T00:03:02.135Z,20.34
2018-09-28T00:04:02.130Z,20.30
2018-09-28T00:05:02.118Z,20.34
2018-09-28T00:06:02.104Z,20.37
2018-09-28T00:07:02.112Z,20.34
2018-09-28T00:08:02.080Z,20.35
2018-09-28T00:09:02.069Z,20.38
2018-09-28T00:10:02.061Z,20.33
2018-09-28T00:11:02.048Z,20.37
2018-09-28T00:12:02.051Z,20.33
2018-09-28T00:13:02.025Z,20.33
2018-09-28T00:14:02.018Z,20.33
2018-09-28T00:15:02.006Z,20.27
2018-09-28T00:16:01.993Z,20.31
2018-09-28T00:17:01.996Z,20.26
2018-09-28T00:18:01.970Z,20.26
2018-09-28T00:19:01.960Z,20.26
2018-09-28T00:20:01.948Z,20.27
2018-09-28T00:21:01.941Z,20.26
2018-09-28T00:22:01.944Z,20.25
2018-09-28T00:23:01.917Z,20.23
2018-09-28T00:24:01.905Z,20.25
2018-09-28T00:25:01.898Z,20.19
2018-09-28T00:26:01.957Z,20.26
2018-09-28T00:27:01.900Z,20.26
2018-09-28T00:28:01.863Z,20.23
2018-09-28T00:29:01.851Z,20.22
2018-09-28T00:30:01.838Z,20.20
2018-09-28T00:31:01.828Z,20.27
2018-09-28T00:32:01.828Z,20.26
2018-09-28T00:33:01.821Z,20.26
2018-09-28T00:34:01.794Z,20.26
2018-09-28T00:35:01.783Z,20.25
2018-09-28T00:36:01.894Z,20.31
2018-09-28T00:37:01.763Z,20.22
2018-09-28T00:38:01.768Z,20.22
2018-09-28T00:39:01.739Z,20.22
2018-09-28T00:40:01.730Z,20.34
2018-09-28T00:41:01.718Z,20.27
2018-09-28T00:42:01.707Z,20.16
2018-09-28T00:43:01.713Z,20.10
2018-09-28T00:44:01.683Z,20.27
2018-09-28T00:45:01.674Z,20.22
2018-09-28T00:46:01.662Z,20.17
2018-09-28T00:47:01.655Z,20.10
2018-09-28T00:48:01.654Z,20.25
2018-09-28T00:49:01.679Z,20.27
2018-09-28T00:50:01.620Z,20.17
2018-09-28T00:51:01.610Z,20.30
2018-09-28T00:52:01.597Z,20.22
2018-09-28T00:53:01.601Z,20.19
2018-09-28T00:54:01.576Z,20.20
2018-09-28T00:55:01.569Z,20.22
2018-09-28T00:56:01.556Z,20.23
2018-09-28T00:57:01.542Z,20.19
2018-09-28T00:58:01.549Z,20.15
2018-09-28T00:59:01.521Z,20.20
2018-09-28T01:00:01.511Z,20.19
2018-09-28T01:01:01.500Z,20.19
2018-09-28T01:02:01.488Z,20.19
2018-09-28T01:03:01.493Z,20.15
2018-09-28T01:04:01.466Z,20.17
2018-09-28T01:05:01.456Z,20.15
2018-09-28T01:06:01.443Z,20.15
2018-09-28T01:07:01.437Z,20.13
2018-09-28T01:08:01.437Z,20.12
2018-09-28T01:09:01.410Z,20.10
2018-09-28T01:10:01.400Z,20.08
2018-09-28T01:11:01.388Z,20.07
2018-09-28T01:12:01.391Z,20.15
2018-09-28T01:13:01.389Z,20.15
2018-09-28T01:14:01.355Z,20.15
2018-09-28T01:15:01.345Z,20.15
2018-09-28T01:16:01.335Z,20.15
2018-09-28T01:17:01.323Z,20.10
2018-09-28T01:18:01.328Z,20.10
2018-09-28T01:19:01.302Z,20.08
2018-09-28T01:20:01.290Z,20.08
2018-09-28T01:21:01.279Z,20.10
2018-09-28T01:22:01.269Z,20.16
2018-09-28T01:23:01.271Z,20.08
2018-09-28T01:24:01.249Z,20.10
2018-09-28T01:25:01.237Z,20.15
2018-09-28T01:26:01.228Z,20.10
2018-09-28T01:27:01.214Z,20.07
2018-09-28T01:28:01.221Z,20.02
2018-09-28T01:29:01.192Z,20.07
2018-09-28T01:30:01.184Z,20.12
2018-09-28T01:31:01.168Z,20.05
2018-09-28T01:32:01.158Z,20.13
2018-09-28T01:33:01.163Z,20.07
2018-09-28T01:34:01.137Z,20.07
2018-09-28T01:35:01.126Z,20.07
2018-09-28T01:36:01.116Z,20.02
2018-09-28T01:37:01.102Z,20.02
2018-09-28T01:38:01.107Z,20.02
2018-09-28T01:39:01.082Z,20.00
2018-09-28T01:40:01.073Z,20.01
2018-09-28T01:41:01.060Z,20.04
2018-09-28T01:42:01.051Z,19.98
2018-09-28T01:43:01.053Z,19.94
2018-09-28T01:44:01.026Z,20.02
2018-09-28T01:45:01.016Z,20.00
2018-09-28T01:46:01.004Z,19.97
2018-09-28T01:47:00.994Z,19.97
2018-09-28T01:48:01.011Z,20.04
2018-09-28T01:49:00.971Z,20.02
2018-09-28T01:50:00.960Z,20.00
2018-09-28T01:51:00.949Z,20.00
2018-09-28T01:52:00.940Z,19.92
2018-09-28T01:53:00.926Z,19.87
2018-09-28T01:54:00.952Z,20.00
2018-09-28T01:55:00.905Z,19.92
2018-09-28T01:56:00.896Z,19.90
2018-09-28T01:57:00.883Z,19.94
2018-09-28T01:58:00.873Z,19.92
2018-09-28T01:59:00.884Z,19.92
2018-09-28T02:00:00.849Z,20.04
2018-09-28T02:01:00.839Z,19.98
2018-09-28T02:02:00.827Z,19.87
2018-09-28T02:03:00.818Z,20.02
2018-09-28T02:04:00.820Z,19.90
2018-09-28T02:05:00.795Z,19.90
2018-09-28T02:06:00.787Z,19.94
2018-09-28T02:07:00.773Z,19.94
2018-09-28T02:08:00.763Z,19.95
2018-09-28T02:09:00.770Z,19.94
2018-09-28T02:10:00.739Z,19.90
2018-09-28T02:11:00.729Z,19.89
2018-09-28T02:12:00.718Z,19.95
2018-09-28T02:13:00.710Z,19.90
2018-09-28T02:14:00.712Z,19.89
2018-09-28T02:15:00.687Z,19.95
2018-09-28T02:16:00.674Z,19.92
2018-09-28T02:17:00.662Z,19.92
2018-09-28T02:18:00.652Z,19.87
2018-09-28T02:19:00.656Z,19.87
2018-09-28T02:20:00.629Z,19.90
2018-09-28T02:21:00.619Z,19.92
2018-09-28T02:22:00.607Z,19.90
2018-09-28T02:23:00.600Z,19.90
2018-09-28T02:24:00.602Z,19.92
2018-09-28T02:25:00.576Z,19.90
2018-09-28T02:26:00.568Z,19.87
2018-09-28T02:27:00.556Z,19.83
2018-09-28T02:28:00.543Z,19.89
2018-09-28T02:29:00.548Z,19.92
2018-09-28T02:30:00.521Z,19.89
2018-09-28T02:31:00.511Z,19.86
2018-09-28T02:32:00.498Z,19.80
2018-09-28T02:33:00.488Z,19.90
2018-09-28T02:34:00.493Z,19.82
2018-09-28T02:35:00.472Z,19.80
2018-09-28T02:36:00.455Z,19.80
2018-09-28T02:37:00.443Z,19.80
2018-09-28T02:38:00.436Z,19.83
2018-09-28T02:39:00.438Z,19.82
2018-09-28T02:40:00.412Z,19.82
2018-09-28T02:41:00.401Z,19.82
2018-09-28T02:42:00.390Z,19.82
2018-09-28T02:43:00.378Z,19.82
2018-09-28T02:44:00.382Z,19.83
2018-09-28T02:45:00.356Z,19.83
2018-09-28T02:46:00.349Z,19.87
2018-09-28T02:47:00.335Z,19.72
2018-09-28T02:48:00.324Z,19.78
2018-09-28T02:49:00.327Z,19.83
2018-09-28T02:50:00.301Z,19.83
2018-09-28T02:51:00.291Z,19.79
2018-09-28T02:52:00.279Z,19.76
2018-09-28T02:53:00.268Z,19.82
2018-09-28T02:54:00.271Z,19.75
2018-09-28T02:55:00.246Z,19.79
2018-09-28T02:56:00.237Z,19.80
2018-09-28T02:57:00.309Z,19.79
2018-09-28T02:58:00.215Z,19.76
2018-09-28T02:59:00.219Z,19.78
2018-09-28T03:00:00.194Z,19.76
2018-09-28T03:01:00.181Z,19.76
2018-09-28T03:02:00.168Z,19.80
2018-09-28T03:03:00.158Z,19.79
2018-09-28T03:04:00.175Z,19.80
2018-09-28T03:05:00.136Z,19.78
2018-09-28T03:06:00.126Z,19.80
2018-09-28T03:07:00.115Z,19.78
2018-09-28T03:08:00.105Z,19.71
2018-09-28T03:09:00.093Z,19.75
2018-09-28T03:10:00.097Z,19.80
2018-09-28T03:11:00.073Z,19.83
2018-09-28T03:12:00.060Z,19.72
2018-09-28T03:13:00.049Z,19.65
2018-09-28T03:14:00.039Z,19.79
2018-09-28T03:15:00.043Z,19.78
2018-09-28T03:16:00.015Z,19.86
2018-09-28T03:17:00.008Z,19.75
2018-09-28T03:17:59.994Z,19.83
2018-09-28T03:18:59.984Z,19.83
2018-09-28T03:19:59.988Z,19.83
2018-09-28T03:20:59.960Z,19.70
2018-09-28T03:21:59.950Z,19.76
2018-09-28T03:22:59.938Z,19.70
2018-09-28T03:23:59.927Z,19.75
2018-09-28T03:24:59.932Z,19.70
2018-09-28T03:25:59.976Z,19.68
2018-09-28T03:26:59.895Z,19.67
2018-09-28T03:27:59.885Z,19.68
2018-09-28T03:28:59.874Z,19.65
2018-09-28T03:29:59.878Z,19.64
2018-09-28T03:30:59.851Z,19.76
2018-09-28T03:31:59.840Z,19.72
2018-09-28T03:32:59.832Z,19.68
2018-09-28T03:33:59.825Z,19.72
2018-09-28T03:34:59.822Z,19.68
2018-09-28T03:35:59.795Z,19.71
2018-09-28T03:36:59.786Z,19.68
2018-09-28T03:37:59.776Z,19.65
2018-09-28T03:38:59.763Z,19.68
2018-09-28T03:39:59.768Z,19.68
2018-09-28T03:40:59.741Z,19.71
2018-09-28T03:41:59.729Z,19.71
2018-09-28T03:42:59.720Z,19.65
2018-09-28T03:43:59.708Z,19.65
2018-09-28T03:44:59.713Z,19.72
2018-09-28T03:45:59.685Z,19.70
2018-09-28T03:46:59.674Z,19.71
2018-09-28T03:47:59.663Z,19.67
2018-09-28T03:48:59.652Z,19.68
2018-09-28T03:49:59.661Z,19.70
2018-09-28T03:50:59.631Z,19.65
2018-09-28T03:51:59.621Z,19.67
2018-09-28T03:52:59.608Z,19.68
2018-09-28T03:53:59.599Z,19.70
2018-09-28T03:54:59.603Z,19.70
2018-09-28T03:55:59.576Z,19.67
2018-09-28T03:56:59.566Z,19.68
2018-09-28T03:57:59.553Z,19.62
2018-09-28T03:58:59.545Z,19.61
2018-09-28T03:59:59.546Z,19.70
2018-09-28T04:00:59.524Z,19.62
2018-09-28T04:01:59.513Z,19.65
2018-09-28T04:02:59.551Z,19.62
2018-09-28T04:03:59.489Z,19.65
2018-09-28T04:04:59.492Z,19.64
2018-09-28T04:05:59.469Z,19.65
2018-09-28T04:06:59.457Z,19.64
2018-09-28T04:07:59.443Z,19.64
2018-09-28T04:08:59.433Z,19.64
2018-09-28T04:09:59.441Z,19.61
2018-09-28T04:10:59.411Z,19.62
2018-09-28T04:11:59.402Z,19.62
2018-09-28T04:12:59.389Z,19.67
2018-09-28T04:13:59.379Z,19.61
2018-09-28T04:14:59.436Z,19.61
2018-09-28T04:15:59.357Z,19.61
2018-09-28T04:16:59.346Z,19.67
2018-09-28T04:17:59.336Z,19.67
2018-09-28T04:18:59.323Z,19.57
2018-09-28T04:19:59.312Z,19.60
2018-09-28T04:20:59.317Z,19.62
2018-09-28T04:21:59.342Z,19.61
2018-09-28T04:22:59.280Z,19.61
2018-09-28T04:23:59.270Z,19.58
2018-09-28T04:24:59.259Z,19.58
2018-09-28T04:25:59.264Z,19.58
2018-09-28T04:26:59.235Z,19.62
2018-09-28T04:27:59.232Z,19.55
2018-09-28T04:28:59.214Z,19.58
2018-09-28T04:29:59.202Z,19.61
2018-09-28T04:30:59.208Z,19.61
2018-09-28T04:31:59.180Z,19.50
2018-09-28T04:32:59.168Z,19.50
2018-09-28T04:33:59.158Z,19.49
2018-09-28T04:34:59.147Z,19.49
2018-09-28T04:35:59.161Z,19.60
2018-09-28T04:36:59.124Z,19.55
2018-09-28T04:37:59.117Z,19.58
2018-09-28T04:38:59.103Z,19.57
2018-09-28T04:39:59.092Z,19.57
2018-09-28T04:40:59.096Z,19.58
2018-09-28T04:41:59.070Z,19.60
2018-09-28T04:42:59.059Z,19.60
2018-09-28T04:43:59.049Z,19.62
2018-09-28T04:44:59.038Z,19.62
2018-09-28T04:45:59.042Z,19.58
2018-09-28T04:46:59.015Z,19.62
2018-09-28T04:47:59.004Z,19.65
2018-09-28T04:48:58.994Z,19.62
2018-09-28T04:49:58.983Z,19.64
2018-09-28T04:50:58.990Z,19.68
2018-09-28T04:51:58.960Z,19.71
2018-09-28T04:52:58.949Z,19.72
2018-09-28T04:53:58.937Z,19.70
2018-09-28T04:54:58.927Z,19.65
2018-09-28T04:55:58.934Z,19.75
2018-09-28T04:56:58.903Z,19.76
2018-09-28T04:57:58.895Z,19.79
2018-09-28T04:58:58.885Z,19.70
2018-09-28T04:59:58.873Z,19.79
2018-09-28T05:00:58.878Z,19.80
2018-09-28T05:01:58.851Z,19.79
2018-09-28T05:02:58.843Z,19.78
2018-09-28T05:03:58.829Z,19.80
2018-09-28T05:04:58.816Z,19.94
2018-09-28T05:05:58.823Z,19.90
2018-09-28T05:06:58.796Z,19.83
2018-09-28T05:07:58.786Z,19.94
2018-09-28T05:08:58.773Z,19.90
2018-09-28T05:09:58.762Z,19.92
2018-09-28T05:10:58.766Z,19.94
2018-09-28T05:11:58.741Z,19.92
2018-09-28T05:12:58.737Z,19.95
2018-09-28T05:13:58.720Z,19.97
2018-09-28T05:14:58.709Z,19.94
2018-09-28T05:15:58.714Z,20.05
2018-09-28T05:16:58.685Z,19.90
2018-09-28T05:17:58.674Z,19.98
2018-09-28T05:18:58.664Z,20.01
2018-09-28T05:19:58.653Z,20.01
2018-09-28T05:20:58.657Z,20.04
2018-09-28T05:21:58.631Z,19.97
2018-09-28T05:22:58.620Z,20.12
2018-09-28T05:23:58.609Z,20.04
2018-09-28T05:24:58.598Z,20.13
2018-09-28T05:25:58.617Z,20.07
2018-09-28T05:26:58.576Z,20.16
2018-09-28T05:27:58.566Z,20.10
2018-09-28T05:28:58.555Z,20.07
2018-09-28T05:29:58.543Z,20.07
2018-09-28T05:30:58.544Z,20.04
2018-09-28T05:31:58.581Z,20.00
2018-09-28T05:32:58.704Z,20.01
2018-09-28T05:33:58.500Z,19.97
2018-09-28T05:34:58.488Z,19.90
2018-09-28T05:35:58.478Z,19.89
2018-09-28T05:36:58.483Z,19.94
2018-09-28T05:37:58.455Z,19.87
2018-09-28T05:38:58.445Z,19.94
2018-09-28T05:39:58.434Z,19.90
2018-09-28T05:40:58.425Z,19.78
2018-09-28T05:41:58.431Z,19.76
2018-09-28T05:42:58.401Z,19.85
2018-09-28T05:43:58.389Z,19.82
2018-09-28T05:44:58.381Z,19.79
2018-09-28T05:45:58.368Z,19.80
2018-09-28T05:46:58.370Z,19.80
2018-09-28T05:47:58.347Z,19.78
2018-09-28T05:48:58.335Z,19.78
2018-09-28T05:49:58.325Z,19.79
2018-09-28T05:50:58.313Z,19.72
2018-09-28T05:51:58.317Z,19.75
2018-09-28T05:52:58.290Z,19.79
2018-09-28T05:53:58.280Z,19.82
2018-09-28T05:54:58.269Z,19.85
2018-09-28T05:55:58.258Z,19.79
2018-09-28T05:56:58.261Z,19.83
2018-09-28T05:57:58.236Z,19.86
2018-09-28T05:58:58.226Z,19.80
2018-09-28T05:59:58.215Z,19.86
2018-09-28T06:00:58.203Z,19.82
2018-09-28T06:01:58.207Z,19.76
2018-09-28T06:02:58.182Z,19.75
2018-09-28T06:03:58.168Z,19.78
2018-09-28T06:04:58.158Z,19.80
2018-09-28T06:05:58.147Z,19.78
2018-09-28T06:06:58.152Z,19.75
2018-09-28T06:07:58.127Z,19.92
2018-09-28T06:08:58.115Z,19.85
2018-09-28T06:09:58.109Z,19.82
2018-09-28T06:10:58.093Z,19.80
2018-09-28T06:11:58.099Z,19.82
2018-09-28T06:12:58.072Z,19.87
2018-09-28T06:13:58.061Z,19.80
2018-09-28T06:14:58.048Z,19.78
2018-09-28T06:15:58.039Z,19.76
2018-09-28T06:16:58.041Z,19.78
2018-09-28T06:17:58.041Z,19.89
2018-09-28T06:18:58.069Z,19.79
2018-09-28T06:19:57.998Z,19.89
2018-09-28T06:20:57.983Z,19.78
2018-09-28T06:21:57.987Z,19.83
2018-09-28T06:22:57.963Z,19.78
2018-09-28T06:23:57.959Z,19.92
2018-09-28T06:24:57.938Z,19.92
2018-09-28T06:25:57.985Z,19.79
2018-09-28T06:26:57.942Z,19.80
2018-09-28T06:27:57.906Z,19.78
2018-09-28T06:28:57.895Z,19.80
2018-09-28T06:29:57.957Z,19.78
2018-09-28T06:30:57.874Z,19.82
2018-09-28T06:31:57.863Z,19.82
2018-09-28T06:32:57.866Z,19.80
2018-09-28T06:33:57.841Z,19.86
2018-09-28T06:34:57.829Z,19.78
2018-09-28T06:35:57.945Z,19.80
2018-09-28T06:36:57.806Z,19.76
2018-09-28T06:37:57.809Z,19.75
2018-09-28T06:38:57.791Z,19.79
2018-09-28T06:39:57.776Z,19.70
2018-09-28T06:40:57.762Z,19.68
2018-09-28T06:41:57.867Z,19.78
2018-09-28T06:42:57.757Z,19.68
2018-09-28T06:43:57.731Z,19.68
2018-09-28T06:44:57.722Z,19.72
2018-09-28T06:45:57.709Z,19.70
2018-09-28T06:46:57.698Z,19.75
2018-09-28T06:47:57.760Z,19.67
2018-09-28T06:48:57.676Z,19.72
2018-09-28T06:49:57.665Z,19.78
2018-09-28T06:50:57.653Z,19.76
2018-09-28T06:51:57.642Z,19.72
2018-09-28T06:52:57.646Z,19.70
2018-09-28T06:53:57.657Z,19.71
2018-09-28T06:54:57.611Z,19.68
2018-09-28T06:55:57.598Z,19.67
2018-09-28T06:56:57.587Z,19.68
2018-09-28T06:57:57.597Z,19.76
2018-09-28T06:58:57.565Z,19.78
2018-09-28T06:59:57.627Z,19.67
2018-09-28T07:00:57.545Z,19.68
2018-09-28T07:01:57.534Z,19.70
2018-09-28T07:02:57.539Z,19.67
2018-09-28T07:03:57.528Z,19.76
2018-09-28T07:04:57.499Z,19.70
2018-09-28T07:05:57.554Z,19.65
2018-09-28T07:06:57.478Z,19.68
2018-09-28T07:07:57.482Z,19.78
2018-09-28T07:08:57.456Z,19.72
2018-09-28T07:09:57.446Z,19.72
2018-09-28T07:10:57.434Z,19.68
2018-09-28T07:11:57.510Z,19.76
2018-09-28T07:12:57.430Z,19.70
2018-09-28T07:13:57.400Z,19.67
2018-09-28T07:14:57.389Z,19.71
2018-09-28T07:15:57.380Z,19.72
2018-09-28T07:16:57.370Z,19.83
2018-09-28T07:17:57.439Z,19.72
2018-09-28T07:18:57.347Z,19.80
2018-09-28T07:19:57.336Z,19.86
2018-09-28T07:20:57.324Z,19.72
2018-09-28T07:21:57.314Z,19.78
2018-09-28T07:22:57.317Z,19.83
2018-09-28T07:23:57.371Z,19.64
2018-09-28T07:24:57.283Z,19.75
2018-09-28T07:25:57.269Z,19.79
2018-09-28T07:26:57.260Z,19.79
2018-09-28T07:27:57.262Z,19.82
2018-09-28T07:28:57.242Z,19.82
2018-09-28T07:29:57.296Z,19.79
2018-09-28T07:30:57.216Z,19.90
2018-09-28T07:31:57.203Z,19.86
2018-09-28T07:32:57.209Z,19.79
2018-09-28T07:33:57.182Z,19.86
2018-09-28T07:34:57.171Z,19.92
2018-09-28T07:35:57.264Z,19.89
2018-09-28T07:36:57.352Z,19.80
2018-09-28T07:37:57.153Z,19.87
2018-09-28T07:38:57.128Z,19.94
2018-09-28T07:39:57.118Z,19.94
2018-09-28T07:40:57.106Z,19.97
2018-09-28T07:41:57.168Z,19.89
2018-09-28T07:42:57.099Z,19.90
2018-09-28T07:43:57.073Z,19.94
2018-09-28T07:44:57.064Z,19.92
2018-09-28T07:45:57.050Z,19.95
2018-09-28T07:46:57.039Z,20.05
2018-09-28T07:47:57.184Z,19.98
2018-09-28T07:48:57.026Z,19.97
2018-09-28T07:49:57.004Z,19.95
2018-09-28T07:50:56.994Z,19.98
2018-09-28T07:51:56.987Z,19.94
2018-09-28T07:52:56.974Z,20.00
2018-09-28T07:53:56.976Z,19.97
2018-09-28T07:54:56.949Z,19.98
2018-09-28T07:55:57.018Z,20.04
2018-09-28T07:56:56.929Z,20.02
2018-09-28T07:57:56.918Z,20.10
2018-09-28T07:58:56.926Z,20.05
2018-09-28T07:59:56.897Z,20.13
2018-09-28T08:00:56.888Z,20.16
2018-09-28T08:01:56.877Z,20.10
2018-09-28T08:02:56.863Z,20.07
2018-09-28T08:03:56.949Z,20.15
2018-09-28T08:04:56.842Z,20.12
2018-09-28T08:05:56.831Z,20.13
2018-09-28T08:06:56.820Z,20.08
2018-09-28T08:07:56.809Z,20.10
2018-09-28T08:08:56.813Z,20.10
2018-09-28T08:09:56.787Z,20.15
2018-09-28T08:10:56.775Z,20.12
2018-09-28T08:11:56.766Z,20.16
2018-09-28T08:12:56.758Z,20.16
2018-09-28T08:13:56.759Z,20.17
2018-09-28T08:14:56.731Z,20.17
2018-09-28T08:15:56.721Z,20.17
2018-09-28T08:16:56.710Z,20.16
2018-09-28T08:17:56.722Z,20.16
2018-09-28T08:18:56.702Z,20.13
2018-09-28T08:19:56.678Z,20.13
2018-09-28T08:20:56.665Z,20.13
2018-09-28T08:21:56.656Z,20.17
2018-09-28T08:22:56.643Z,20.15
2018-09-28T08:23:56.649Z,20.23
2018-09-28T08:24:56.625Z,20.20
2018-09-28T08:25:56.611Z,20.30
2018-09-28T08:26:56.601Z,20.27
2018-09-28T08:27:56.590Z,20.23
2018-09-28T08:28:56.594Z,20.13
2018-09-28T08:29:56.568Z,20.27
2018-09-28T08:30:56.558Z,20.22
2018-09-28T08:31:56.546Z,20.17
2018-09-28T08:32:56.536Z,20.31
2018-09-28T08:33:56.538Z,20.26
2018-09-28T08:34:56.513Z,20.23
2018-09-28T08:35:56.502Z,20.30
2018-09-28T08:36:56.491Z,20.31
2018-09-28T08:37:56.481Z,20.22
2018-09-28T08:38:56.484Z,20.27
2018-09-28T08:39:56.460Z,20.31
2018-09-28T08:40:56.448Z,20.34
2018-09-28T08:41:56.518Z,20.31
2018-09-28T08:42:56.424Z,20.34
2018-09-28T08:43:56.432Z,20.34
2018-09-28T08:44:56.403Z,20.37
2018-09-28T08:45:56.394Z,20.34
2018-09-28T08:46:56.381Z,20.37
2018-09-28T08:47:56.371Z,20.31
2018-09-28T08:48:56.375Z,20.37
2018-09-28T08:49:56.348Z,20.37
2018-09-28T08:50:56.339Z,20.40
2018-09-28T08:51:56.337Z,20.42
2018-09-28T08:52:56.318Z,20.35
2018-09-28T08:53:56.319Z,20.38
2018-09-28T08:54:56.297Z,20.38
2018-09-28T08:55:56.283Z,20.35
2018-09-28T08:56:56.275Z,20.41
2018-09-28T08:57:56.260Z,20.44
2018-09-28T08:58:56.264Z,20.35
2018-09-28T08:59:56.239Z,20.37
2018-09-28T09:00:56.228Z,20.35
2018-09-28T09:01:56.218Z,20.37
2018-09-28T09:02:56.212Z,20.50
2018-09-28T09:03:56.228Z,20.40
2018-09-28T09:04:56.185Z,20.46
2018-09-28T09:05:56.174Z,20.42
2018-09-28T09:06:56.163Z,20.46
2018-09-28T09:07:56.152Z,20.46
2018-09-28T09:08:56.142Z,20.41
2018-09-28T09:09:56.145Z,20.51
2018-09-28T09:10:56.120Z,20.40
2018-09-28T09:11:56.109Z,20.40
2018-09-28T09:12:56.099Z,20.58
2018-09-28T09:13:56.087Z,20.46
2018-09-28T09:14:56.090Z,20.48
2018-09-28T09:15:56.069Z,20.41
2018-09-28T09:16:56.054Z,20.50
2018-09-28T09:17:56.102Z,20.54
2018-09-28T09:18:56.033Z,20.48
2018-09-28T09:19:56.037Z,20.56
2018-09-28T09:20:56.014Z,20.54
2018-09-28T09:21:56.001Z,20.48
2018-09-28T09:22:55.991Z,20.57
2018-09-28T09:23:56.040Z,20.60
2018-09-28T09:24:55.983Z,20.58
2018-09-28T09:25:55.957Z,20.57
2018-09-28T09:26:55.949Z,20.71
2018-09-28T09:27:55.937Z,20.57
2018-09-28T09:28:55.925Z,20.68
2018-09-28T09:29:55.928Z,20.57
2018-09-28T09:30:55.903Z,20.64
2018-09-28T09:31:55.894Z,20.64
2018-09-28T09:32:55.884Z,20.64
2018-09-28T09:33:55.873Z,20.60
2018-09-28T09:34:55.874Z,20.64
2018-09-28T09:35:55.849Z,20.69
2018-09-28T09:36:55.844Z,20.66
2018-09-28T09:37:55.827Z,20.68
2018-09-28T09:38:55.817Z,20.61
2018-09-28T09:39:55.821Z,20.68
2018-09-28T09:40:55.795Z,20.64
2018-09-28T09:41:55.783Z,20.75
2018-09-28T09:42:55.774Z,20.71
2018-09-28T09:43:55.763Z,20.76
2018-09-28T09:44:55.766Z,20.75
2018-09-28T09:45:55.740Z,20.73
2018-09-28T09:46:55.730Z,20.78
2018-09-28T09:47:55.719Z,20.79
2018-09-28T09:48:55.708Z,20.76
2018-09-28T09:49:55.713Z,20.81
2018-09-28T09:50:55.689Z,20.79
2018-09-28T09:51:55.678Z,20.82
2018-09-28T09:52:55.666Z,20.87
2018-09-28T09:53:55.657Z,20.76
2018-09-28T09:54:55.661Z,20.79
2018-09-28T09:55:55.631Z,20.88
2018-09-28T09:56:55.622Z,20.88
2018-09-28T09:57:55.766Z,20.85
2018-09-28T09:58:55.601Z,20.91
2018-09-28T09:59:55.604Z,20.88
2018-09-28T10:00:55.583Z,20.87
2018-09-28T10:01:55.572Z,20.91
2018-09-28T10:02:55.557Z,20.90
2018-09-28T10:03:55.547Z,20.88
2018-09-28T10:04:55.550Z,20.96
2018-09-28T10:05:55.526Z,20.96
2018-09-28T10:06:55.517Z,20.97
2018-09-28T10:07:55.504Z,20.85
2018-09-28T10:08:55.494Z,20.97
2018-09-28T10:09:55.512Z,21.01
2018-09-28T10:10:55.472Z,20.90
2018-09-28T10:11:55.461Z,20.93
2018-09-28T10:12:55.453Z,20.90
2018-09-28T10:13:55.440Z,21.01
2018-09-28T10:14:55.434Z,21.00
2018-09-28T10:15:55.434Z,21.06
2018-09-28T10:16:55.408Z,20.94
2018-09-28T10:17:55.400Z,21.06
2018-09-28T10:18:55.387Z,21.06
2018-09-28T10:19:55.377Z,21.09
2018-09-28T10:20:55.383Z,21.05
2018-09-28T10:21:55.355Z,20.98
2018-09-28T10:22:55.347Z,21.08
2018-09-28T10:23:55.333Z,21.15
2018-09-28T10:24:55.324Z,21.05
2018-09-28T10:25:55.331Z,21.11
2018-09-28T10:26:55.327Z,21.08
2018-09-28T10:27:55.380Z,21.08
2018-09-28T10:28:55.282Z,21.13
2018-09-28T10:29:55.272Z,21.15
2018-09-28T10:30:55.275Z,21.19
2018-09-28T10:31:55.248Z,21.16
2018-09-28T10:32:55.238Z,21.12
2018-09-28T10:33:55.232Z,21.13
2018-09-28T10:34:55.218Z,21.16
2018-09-28T10:35:55.221Z,21.18
2018-09-28T10:36:55.199Z,21.18
2018-09-28T10:37:55.190Z,21.19
2018-09-28T10:38:55.174Z,21.13
2018-09-28T10:39:55.169Z,21.15
2018-09-28T10:40:55.294Z,21.12
2018-09-28T10:41:55.143Z,21.16
2018-09-28T10:42:55.132Z,21.21
2018-09-28T10:43:55.123Z,21.24
2018-09-28T10:44:55.111Z,21.21
2018-09-28T10:45:55.118Z,21.26
2018-09-28T10:46:55.093Z,21.24
2018-09-28T10:47:55.079Z,21.19
2018-09-28T10:48:55.068Z,21.18
2018-09-28T10:49:55.060Z,21.26
2018-09-28T10:50:55.103Z,21.11
2018-09-28T10:51:55.109Z,21.21
2018-09-28T10:52:55.109Z,21.09
2018-09-28T10:53:55.016Z,21.15
2018-09-28T10:54:55.007Z,21.13
2018-09-28T10:55:55.009Z,21.12
2018-09-28T10:56:54.987Z,21.16
2018-09-28T10:57:54.972Z,21.15
2018-09-28T10:58:55.098Z,21.12
2018-09-28T10:59:54.956Z,21.13
2018-09-28T11:00:54.957Z,21.19
2018-09-28T11:01:54.932Z,21.09
2018-09-28T11:02:54.921Z,21.11
2018-09-28T11:03:54.909Z,21.11
2018-09-28T11:04:54.899Z,21.11
2018-09-28T11:05:54.904Z,21.13
2018-09-28T11:06:54.899Z,21.24
2018-09-28T11:07:54.882Z,21.13
2018-09-28T11:08:54.915Z,21.12
2018-09-28T11:09:54.848Z,21.22
2018-09-28T11:10:54.851Z,21.24
2018-09-28T11:11:54.844Z,21.27
2018-09-28T11:12:54.815Z,21.21
2018-09-28T11:13:54.805Z,21.24
2018-09-28T11:14:54.793Z,21.19
2018-09-28T11:15:54.797Z,21.24
2018-09-28T11:16:54.773Z,21.19
2018-09-28T11:17:54.761Z,21.22
2018-09-28T11:18:54.817Z,21.30
2018-09-28T11:19:54.740Z,21.28
2018-09-28T11:20:54.745Z,21.24
2018-09-28T11:21:54.717Z,21.28
2018-09-28T11:22:54.709Z,21.22
2018-09-28T11:23:54.700Z,21.31
2018-09-28T11:24:54.688Z,21.30
2018-09-28T11:25:54.713Z,21.27
2018-09-28T11:26:54.668Z,21.28
2018-09-28T11:27:54.658Z,21.26
2018-09-28T11:28:54.645Z,21.31
2018-09-28T11:29:54.639Z,21.37
2018-09-28T11:30:54.625Z,21.36
2018-09-28T11:31:54.627Z,21.37
2018-09-28T11:32:54.603Z,21.30
2018-09-28T11:33:54.592Z,21.26
2018-09-28T11:34:54.582Z,21.34
2018-09-28T11:35:54.571Z,21.40
2018-09-28T11:36:54.578Z,21.34
2018-09-28T11:37:54.550Z,21.37
2018-09-28T11:38:54.539Z,21.43
2018-09-28T11:39:54.533Z,21.46
2018-09-28T11:40:54.519Z,21.45
2018-09-28T11:41:54.523Z,21.45
2018-09-28T11:42:54.500Z,21.56
2018-09-28T11:43:54.490Z,21.55
2018-09-28T11:44:54.476Z,21.46
2018-09-28T11:45:54.555Z,21.63
2018-09-28T11:46:54.469Z,21.61
2018-09-28T11:47:54.445Z,21.63
2018-09-28T11:48:54.434Z,21.66
2018-09-28T11:49:54.425Z,21.63
2018-09-28T11:50:54.412Z,21.71
2018-09-28T11:51:54.418Z,21.75
2018-09-28T11:52:54.392Z,21.79
2018-09-28T11:53:54.382Z,21.89
2018-09-28T11:54:54.371Z,21.83
2018-09-28T11:55:54.360Z,21.85
2018-09-28T11:56:54.366Z,21.91
2018-09-28T11:57:54.339Z,21.85
2018-09-28T11:58:54.328Z,21.90
2018-09-28T11:59:54.368Z,21.85
2018-09-28T12:00:54.310Z,21.91
2018-09-28T12:01:54.312Z,21.90
2018-09-28T12:02:54.287Z,21.94
2018-09-28T12:03:54.342Z,21.98
2018-09-28T12:04:54.265Z,21.93
2018-09-28T12:05:54.255Z,22.02
2018-09-28T12:06:54.361Z,21.96
2018-09-28T12:07:54.232Z,21.99
2018-09-28T12:08:54.220Z,21.98
2018-09-28T12:09:54.209Z,22.02
2018-09-28T12:10:54.215Z,22.12
2018-09-28T12:11:54.204Z,22.15
2018-09-28T12:12:54.177Z,22.21
2018-09-28T12:13:54.165Z,22.09
2018-09-28T12:14:54.155Z,22.12
2018-09-28T12:15:54.144Z,22.21
2018-09-28T12:16:54.148Z,22.23
2018-09-28T12:17:54.121Z,22.21
2018-09-28T12:18:54.112Z,22.24
2018-09-28T12:19:54.100Z,22.31
2018-09-28T12:20:54.088Z,22.29
2018-09-28T12:21:54.093Z,22.42
2018-09-28T12:22:54.067Z,22.41
2018-09-28T12:23:54.054Z,22.48
2018-09-28T12:24:54.045Z,22.49
2018-09-28T12:25:54.034Z,22.54
2018-09-28T12:26:54.039Z,22.60
2018-09-28T12:27:54.012Z,22.63
2018-09-28T12:28:54.002Z,22.66
2018-09-28T12:29:54.219Z,22.75
2018-09-28T12:30:53.980Z,22.75
2018-09-28T12:31:54.171Z,22.85
2018-09-28T12:32:53.960Z,22.91
2018-09-28T12:33:53.948Z,22.89
2018-09-28T12:34:53.937Z,23.03
2018-09-28T12:35:53.924Z,23.01
2018-09-28T12:36:53.928Z,23.06
2018-09-28T12:37:53.906Z,23.11
2018-09-28T12:38:53.894Z,23.11
2018-09-28T12:39:53.911Z,23.14
2018-09-28T12:40:53.871Z,23.22
2018-09-28T12:41:53.859Z,23.21
2018-09-28T12:42:53.868Z,23.22
2018-09-28T12:43:53.837Z,23.31
2018-09-28T12:44:53.895Z,23.29
2018-09-28T12:45:53.815Z,23.31
2018-09-28T12:46:53.802Z,23.31
2018-09-28T12:47:53.810Z,23.34
2018-09-28T12:48:53.783Z,23.31
2018-09-28T12:49:53.772Z,23.32
2018-09-28T12:50:53.761Z,23.39
2018-09-28T12:51:53.749Z,23.38